Time;durP1;ratioP1;P1;durP2;ratioP2;P2;SDS_P1;SDS_P2;PMS_P1;PMS_P2;Temp;Humidity;BMP_temperature;BMP_pressure;BME280_temperature;BME280_humidity;BME280_pressure;Samples;Min_cycle;Max_cycle;Signal;HPM_P1;HPM_P2
2022/03/25 00:04:05;;;;;;;10.87;4.57;;;5.90;49.80;;;4.02;45.00;101046.38;10301921;28;96645;-76
2022/03/25 00:09:09;;;;;;;12.73;5.73;;;5.80;49.20;;;3.91;46.33;101037.53;10308664;28;97654;-77
2022/03/25 00:14:14;;;;;;;12.10;5.13;;;5.70;50.90;;;3.87;46.66;101034.28;10309843;28;96675;-77
2022/03/25 00:19:18;;;;;;;10.53;4.77;;;5.60;51.40;;;3.84;46.59;101033.63;10326653;28;96519;-77
2022/03/25 00:24:23;;;;;;;10.00;4.50;;;5.60;50.70;;;3.78;46.98;101036.66;10321880;28;96506;-77
2022/03/25 00:29:26;;;;;;;10.20;4.90;;;5.50;51.20;;;3.70;47.41;101037.19;10299886;28;96700;-77
2022/03/25 00:34:30;;;;;;;16.90;4.80;;;5.50;51.50;;;3.65;47.33;101034.03;10331823;28;97492;-77
2022/03/25 00:39:33;;;;;;;11.17;4.70;;;5.40;51.50;;;3.66;47.07;101030.47;10324261;28;96637;-77
2022/03/25 00:44:36;;;;;;;10.40;5.27;;;5.40;51.00;;;3.71;47.38;101031.84;10332859;28;96902;-78
2022/03/25 00:49:39;;;;;;;11.47;3.80;;;5.40;50.90;;;3.72;47.57;101022.19;10286895;28;97381;-77
2022/03/25 00:54:42;;;;;;;7.97;4.07;;;5.40;51.40;;;3.79;47.78;101031.34;10309444;28;96549;-78
2022/03/25 00:59:46;;;;;;;8.20;3.07;;;5.40;52.00;;;3.90;47.01;101026.19;10293353;28;96805;-77
2022/03/25 01:04:50;;;;;;;13.47;5.50;;;5.60;52.00;;;3.94;46.68;101025.00;10281674;28;96570;-78
2022/03/25 01:09:53;;;;;;;8.07;4.10;;;5.60;51.10;;;3.88;47.57;101019.34;10279614;28;96533;-77
2022/03/25 01:14:57;;;;;;;12.97;5.37;;;5.60;51.60;;;3.85;47.99;101025.66;10314638;28;96881;-78
2022/03/25 01:20:00;;;;;;;11.83;5.13;;;5.50;52.80;;;3.76;48.00;101026.25;10331527;28;96568;-78
2022/03/25 01:25:04;;;;;;;13.97;5.30;;;5.40;53.30;;;3.63;47.78;101020.16;10330057;28;96526;-78
2022/03/25 01:30:08;;;;;;;14.80;6.70;;;5.30;52.80;;;3.45;47.90;101023.06;10309627;28;96628;-78
2022/03/25 01:35:11;;;;;;;14.53;6.10;;;5.20;52.40;;;3.29;48.80;101032.91;10293891;28;96779;-78
2022/03/25 01:40:14;;;;;;;12.57;5.17;;;5.00;52.50;;;3.09;49.60;101030.75;10332848;28;96480;-78
2022/03/25 01:45:35;;;;;;;17.90;5.30;;;4.90;54.60;;;3.08;50.28;101035.16;10315214;28;96530;-78
2022/03/25 01:50:45;;;;;;;13.27;5.20;;;4.80;54.50;;;3.01;50.55;101036.50;10295724;28;96544;-78
2022/03/25 01:55:54;;;;;;;8.07;4.77;;;4.70;53.90;;;2.95;50.54;101035.13;10282190;28;96605;-77
2022/03/25 02:00:59;;;;;;;11.07;5.17;;;4.60;54.90;;;2.93;50.40;101031.72;10298212;28;96661;-78
2022/03/25 02:06:03;;;;;;;12.33;4.90;;;4.60;54.00;;;2.94;50.62;101049.19;10303597;28;96635;-78
2022/03/25 02:11:09;;;;;;;10.73;4.87;;;4.60;54.80;;;2.93;51.14;101047.47;10309103;28;96613;-78
2022/03/25 02:16:12;;;;;;;13.47;4.93;;;4.60;55.40;;;2.89;51.68;101059.13;10327603;28;96666;-78
2022/03/25 02:21:15;;;;;;;10.83;4.30;;;4.60;55.50;;;2.76;51.58;101046.84;10310547;28;96537;-78
2022/03/25 02:26:18;;;;;;;12.67;5.07;;;4.50;56.20;;;2.63;51.70;101054.66;10308384;28;96506;-78
2022/03/25 02:31:22;;;;;;;11.13;4.67;;;4.40;56.20;;;2.53;52.81;101059.66;10252961;28;96609;-78
2022/03/25 02:36:25;;;;;;;9.33;4.30;;;4.30;56.30;;;2.52;52.66;101067.59;10229438;28;96901;-78
2022/03/25 02:41:28;;;;;;;10.77;4.53;;;4.30;56.00;;;2.57;52.98;101076.88;10242353;28;98681;-79
2022/03/25 02:46:31;;;;;;;10.83;4.50;;;4.30;56.30;;;2.66;52.74;101072.88;10271273;28;96637;-78
2022/03/25 02:51:34;;;;;;;11.17;4.17;;;4.30;56.40;;;2.64;53.21;101080.84;10237572;28;97728;-79
2022/03/25 02:56:37;;;;;;;14.27;4.80;;;4.30;57.30;;;2.55;52.89;101083.19;10240860;28;96565;-79
2022/03/25 03:01:39;;;;;;;13.97;6.30;;;4.20;56.40;;;2.44;53.17;101083.00;10248962;28;98230;-78
2022/03/25 03:06:46;;;;;;;14.63;6.17;;;4.20;57.20;;;2.34;54.13;101091.44;10261714;28;96558;-79
2022/03/25 03:11:49;;;;;;;16.03;6.57;;;4.10;56.70;;;2.23;54.38;101088.63;10253876;28;96626;-78
2022/03/25 03:16:52;;;;;;;16.57;6.20;;;4.00;57.90;;;2.14;55.34;101084.75;10253379;28;96612;-78
2022/03/25 03:21:55;;;;;;;17.07;7.53;;;3.90;58.90;;;2.06;55.03;101083.53;10253596;28;96546;-78
2022/03/25 03:26:58;;;;;;;14.37;6.97;;;3.80;57.90;;;1.94;56.20;101092.13;10260705;28;98082;-78
2022/03/25 03:32:01;;;;;;;17.50;8.20;;;3.70;59.80;;;1.87;56.45;101091.66;10276544;28;96555;-78
2022/03/25 03:37:04;;;;;;;17.53;7.97;;;3.60;60.00;;;1.79;55.85;101094.72;10275092;28;96556;-78
2022/03/25 03:42:08;;;;;;;17.17;7.10;;;3.50;59.50;;;1.67;56.34;101095.41;10250025;28;96621;-78
2022/03/25 03:47:14;;;;;;;13.53;6.77;;;3.40;59.40;;;1.55;56.53;101088.28;10236471;28;96607;-78
2022/03/25 03:52:17;;;;;;;13.47;7.10;;;3.30;60.10;;;1.42;56.62;101089.91;10268656;28;96623;-78
2022/03/25 03:57:20;;;;;;;15.93;6.97;;;3.20;59.70;;;1.32;57.16;101110.56;10258661;28;96614;-78
2022/03/25 04:02:23;;;;;;;11.67;5.73;;;3.10;59.20;;;1.23;57.76;101106.66;10242186;28;96512;-78
2022/03/25 04:07:26;;;;;;;14.33;6.73;;;3.10;61.30;;;1.17;58.14;101107.00;10225347;28;96597;-77
2022/03/25 04:12:29;;;;;;;14.47;6.30;;;3.00;62.30;;;1.15;58.43;101105.41;10236258;28;96522;-77
2022/03/25 04:17:32;;;;;;;13.17;6.63;;;2.90;61.30;;;1.09;59.42;101109.22;10277201;28;96590;-77
2022/03/25 04:22:35;;;;;;;13.73;6.03;;;2.90;63.20;;;1.03;59.12;101109.56;10259108;28;96494;-77
2022/03/25 04:27:58;;;;;;;19.67;6.23;;;2.80;62.30;;;1.01;59.35;101103.53;10264289;28;96543;-78
2022/03/25 04:33:06;;;;;;;15.47;6.67;;;2.80;61.50;;;0.97;60.20;101107.28;10257555;28;96535;-78
2022/03/25 04:38:09;;;;;;;14.17;6.57;;;2.70;63.90;;;0.99;60.52;101106.25;10275977;28;97091;-78
2022/03/25 04:43:13;;;;;;;113.27;34.50;;;2.70;63.30;;;1.23;60.89;101101.44;10273928;28;96648;-78
2022/03/25 04:48:16;;;;;;;33.63;14.27;;;2.80;61.40;;;1.62;60.23;101105.34;10291602;28;96597;-78
2022/03/25 04:53:19;;;;;;;21.13;8.20;;;3.10;61.10;;;1.81;59.01;101097.25;10257325;28;96783;-78
2022/03/25 04:58:21;;;;;;;19.73;7.70;;;3.30;63.30;;;1.85;58.91;101096.97;10253881;28;96887;-78
2022/03/25 05:03:25;;;;;;;17.83;6.47;;;3.40;61.70;;;1.88;58.59;101109.91;10230097;28;96576;-78
2022/03/25 05:08:29;;;;;;;12.33;6.27;;;3.50;62.30;;;1.91;58.01;101105.41;10267373;28;96500;-78
2022/03/25 05:13:33;;;;;;;8.67;4.97;;;3.50;61.50;;;1.95;58.20;101109.53;10252486;28;96715;-78
2022/03/25 05:18:38;;;;;;;11.67;4.83;;;3.60;62.00;;;2.03;58.09;101109.94;10260938;28;96564;-78
2022/03/25 05:23:41;;;;;;;10.27;4.90;;;3.60;62.00;;;2.13;58.87;101105.84;10275475;28;96702;-78
2022/03/25 05:28:44;;;;;;;12.07;5.90;;;3.70;62.30;;;2.27;58.87;101116.31;10255135;28;97153;-77
2022/03/25 05:33:48;;;;;;;12.63;5.37;;;3.80;61.90;;;2.39;58.38;101120.00;10290189;28;96964;-77
2022/03/25 05:38:51;;;;;;;15.57;5.93;;;3.90;63.20;;;2.49;58.07;101128.16;10245566;28;96580;-77
2022/03/25 05:43:54;;;;;;;11.77;5.13;;;4.00;62.40;;;2.65;58.08;101128.91;10268111;28;96822;-78
2022/03/25 05:48:57;;;;;;;15.97;6.40;;;4.20;63.20;;;2.88;58.41;101130.97;10248342;28;96620;-76
2022/03/25 05:54:00;;;;;;;19.73;8.57;;;4.30;63.80;;;3.12;57.69;101135.59;10249460;28;96543;-77
2022/03/25 05:59:03;;;;;;;13.20;7.77;;;4.50;62.80;;;3.31;56.52;101137.91;10261369;28;96510;-77
2022/03/25 06:04:06;;;;;;;26.67;10.30;;;4.70;61.90;;;3.43;56.60;101140.59;10265790;28;96879;-77
2022/03/25 06:09:09;;;;;;;30.77;11.70;;;4.90;62.50;;;3.56;56.49;101145.88;10290496;28;97648;-76
2022/03/25 06:14:12;;;;;;;26.57;11.40;;;5.00;62.00;;;3.71;56.14;101149.28;10255735;28;96630;-78
2022/03/25 06:19:17;;;;;;;36.20;12.50;;;5.10;61.90;;;3.83;55.80;101140.59;10280092;28;96546;-78
2022/03/25 06:24:20;;;;;;;22.90;10.40;;;5.20;61.40;;;3.97;55.21;101144.97;10231658;28;96524;-78
2022/03/25 06:29:23;;;;;;;24.23;9.90;;;5.40;61.50;;;4.16;55.11;101140.13;10260789;28;96630;-78
2022/03/25 06:34:26;;;;;;;24.43;9.77;;;5.50;61.30;;;4.36;54.56;101133.50;10279553;28;96417;-78
2022/03/25 06:39:30;;;;;;;22.77;10.40;;;5.70;60.80;;;4.64;54.83;101134.25;10296502;28;97116;-78
2022/03/25 06:44:33;;;;;;;30.33;11.53;;;5.90;60.40;;;4.95;54.49;101140.84;10278421;28;97076;-78
2022/03/25 06:49:36;;;;;;;29.53;10.47;;;6.20;60.50;;;5.32;53.53;101149.56;10262395;28;98454;-78
2022/03/25 06:54:44;;;;;;;30.40;10.27;;;6.50;59.60;;;5.67;52.74;101140.88;10247974;28;96580;-78
2022/03/25 06:59:47;;;;;;;28.97;11.73;;;6.90;59.70;;;5.99;52.01;101141.16;10256958;28;96307;-78
2022/03/25 07:04:50;;;;;;;21.20;8.80;;;7.20;58.90;;;6.28;51.91;101146.88;10241066;28;96578;-78
2022/03/25 07:09:54;;;;;;;22.43;6.90;;;7.50;58.90;;;6.54;51.47;101153.66;10237989;28;96551;-78
2022/03/25 07:14:57;;;;;;;21.80;8.53;;;7.70;58.70;;;6.83;50.94;101153.16;10287098;28;96540;-78
2022/03/25 07:20:07;;;;;;;19.40;7.47;;;8.00;58.50;;;7.16;50.69;101166.34;10252366;28;96564;-78
2022/03/25 07:25:11;;;;;;;28.83;8.43;;;8.30;58.50;;;7.51;49.32;101160.88;10261368;28;96632;-78
2022/03/25 07:30:16;;;;;;;22.67;8.23;;;8.70;57.60;;;7.87;49.07;101155.34;10320295;28;97509;-78
2022/03/25 07:35:19;;;;;;;22.43;9.93;;;9.00;57.10;;;8.31;48.30;101156.91;10332478;28;96474;-78
2022/03/25 07:40:22;;;;;;;25.50;10.57;;;9.40;56.90;;;8.77;47.08;101159.16;10333950;28;96488;-78
2022/03/25 07:45:25;;;;;;;24.10;9.63;;;9.80;56.00;;;9.25;46.42;101155.84;10308661;28;96607;-78
2022/03/25 07:50:31;;;;;;;16.87;8.93;;;10.30;55.70;;;9.77;45.38;101153.78;10292785;28;96497;-78
2022/03/25 07:55:34;;;;;;;14.50;8.67;;;10.80;54.90;;;10.30;43.70;101153.38;10328550;28;96760;-78
2022/03/25 08:00:38;;;;;;;18.07;8.90;;;11.40;54.30;;;10.91;42.97;101144.91;10327415;28;96462;-79
2022/03/25 08:05:41;;;;;;;12.50;7.97;;;12.00;53.40;;;11.89;40.63;101137.19;10294703;28;96433;-78
2022/03/25 08:10:45;;;;;;;15.63;7.40;;;12.70;52.30;;;13.10;39.24;101129.06;10293145;28;97176;-79
2022/03/25 08:15:48;;;;;;;14.43;7.20;;;13.60;51.40;;;14.07;34.71;101116.88;10322548;28;96499;-79
2022/03/25 08:20:53;;;;;;;14.13;6.80;;;14.60;49.30;;;14.68;32.08;101112.78;10332924;28;96437;-79
2022/03/25 08:31:18;;;;;;;13.50;7.28;;;16.20;43.90;;;16.05;29.30;101104.09;10252859;28;96603;-79
2022/03/25 08:36:21;;;;;;;14.43;7.53;;;16.80;41.70;;;16.16;27.83;101110.88;10258080;28;96498;-79
2022/03/25 08:41:24;;;;;;;13.55;7.80;;;17.10;40.40;;;16.50;26.94;101106.84;10275626;28;97603;-80
2022/03/25 08:46:27;;;;;;;15.98;8.93;;;17.30;39.60;;;16.84;26.30;101111.66;10291134;28;96440;-79
2022/03/25 08:51:30;;;;;;;16.60;8.90;;;17.70;39.20;;;17.02;25.30;101108.56;10272871;28;98425;-79
2022/03/25 08:56:34;;;;;;;15.98;9.70;;;17.90;37.90;;;17.31;25.88;101111.19;10219124;28;96650;-79
2022/03/25 09:01:37;;;;;;;16.67;9.80;;;18.00;37.90;;;17.78;25.45;101095.59;10250463;28;96607;-79
2022/03/25 09:06:40;;;;;;;21.40;10.60;;;18.20;37.50;;;17.58;25.05;101096.19;10284520;28;96664;-79
2022/03/25 09:11:43;;;;;;;20.33;10.75;;;18.30;36.80;;;17.94;25.08;101087.25;10274530;28;96518;-79
2022/03/25 09:16:46;;;;;;;18.05;9.85;;;18.50;36.80;;;18.57;24.59;101084.56;10264557;28;96708;-79
2022/03/25 09:21:49;;;;;;;18.52;10.27;;;19.00;37.00;;;18.79;22.93;101080.78;10292306;28;97197;-80
2022/03/25 09:26:52;;;;;;;18.75;11.65;;;19.20;35.60;;;18.50;22.75;101086.38;10273732;28;96526;-79
2022/03/25 09:31:55;;;;;;;15.73;10.15;;;19.10;35.00;;;18.11;24.24;101083.25;10243058;28;96809;-77
2022/03/25 09:37:18;;;;;;;25.38;11.10;;;19.00;35.40;;;18.13;23.55;101077.66;10282763;28;96643;-78
2022/03/25 09:42:21;;;;;;;16.23;9.73;;;19.00;35.10;;;18.55;23.81;101073.16;10260869;28;96508;-79
2022/03/25 09:47:24;;;;;;;20.90;10.35;;;19.30;35.60;;;19.47;22.37;101073.50;10273954;28;96719;-79
2022/03/25 09:52:32;;;;;;;17.80;9.90;;;20.00;35.30;;;20.02;22.75;101052.59;10272626;28;96498;-79
2022/03/25 09:57:55;;;;;;;17.13;9.85;;;20.40;35.00;;;21.25;21.11;101047.22;10239827;28;96557;-79
2022/03/25 10:02:58;;;;;;;18.13;10.13;;;21.40;33.90;;;21.58;20.18;101044.31;10257774;28;96517;-79
2022/03/25 10:08:01;;;;;;;17.67;10.35;;;22.10;33.30;;;21.73;19.87;101025.06;10242369;28;96531;-79
2022/03/25 10:13:07;;;;;;;13.25;8.90;;;22.20;32.60;;;21.27;20.11;101038.88;10254574;28;97193;-79
2022/03/25 10:18:11;;;;;;;16.17;10.15;;;22.10;31.90;;;20.97;20.67;101030.53;10279401;28;96667;-79
2022/03/25 10:23:17;;;;;;;13.45;9.20;;;21.80;32.00;;;21.57;20.28;101022.91;10264177;28;96581;-79
2022/03/25 10:28:31;;;;;;;13.80;7.97;;;22.10;32.50;;;22.15;19.02;101014.50;10240357;28;96638;-80
2022/03/25 10:33:52;;;;;;;13.35;7.30;;;22.70;31.60;;;22.51;19.44;100999.31;10224772;28;96607;-80
2022/03/25 10:39:01;;;;;;;11.88;7.78;;;22.90;31.70;;;23.00;18.48;100992.00;10240136;28;96604;-79
2022/03/25 10:44:05;;;;;;;13.35;7.93;;;23.50;31.50;;;23.39;18.64;100982.44;10240886;28;97752;-79
2022/03/25 10:49:11;;;;;;;9.73;7.20;;;23.90;31.30;;;23.74;17.98;100986.03;10238874;28;96519;-79
2022/03/25 10:54:14;;;;;;;11.40;6.82;;;24.30;30.70;;;24.11;17.32;100988.50;10240568;28;97120;-79
2022/03/25 10:59:34;;;;;;;8.52;6.65;;;24.70;30.20;;;23.66;17.32;100982.84;10278674;28;96523;-81
2022/03/25 11:04:38;;;;;;;10.35;6.68;;;24.50;29.60;;;23.84;17.35;100981.91;10278799;28;97051;-79
2022/03/25 11:09:42;;;;;;;10.45;6.65;;;24.60;29.60;;;24.34;17.47;100973.22;10260111;28;96511;-79
2022/03/25 11:14:45;;;;;;;12.50;7.05;;;24.90;29.90;;;24.70;16.71;100958.47;10255022;28;96699;-80
2022/03/25 11:19:49;;;;;;;10.15;6.63;;;25.50;29.40;;;24.63;16.63;100966.78;10253923;28;96751;-79
2022/03/25 11:24:58;;;;;;;12.43;6.55;;;25.50;29.30;;;24.37;17.07;100957.31;10277047;28;96821;-80
2022/03/25 11:30:09;;;;;;;;;;;25.30;29.30;;;24.50;16.45;100956.19;10277879;28;96679;-79
2022/03/25 11:35:18;;;;;;;11.23;6.28;;;25.40;29.20;;;25.00;16.77;100947.34;10293805;28;96533;-79
2022/03/25 11:40:24;;;;;;;;;;;25.80;29.20;;;25.48;15.43;100944.09;10311218;28;96604;-79
2022/03/25 11:45:36;;;;;;;10.20;6.95;;;26.40;28.60;;;24.95;16.49;100945.38;10313324;28;96547;-80
2022/03/25 11:50:42;;;;;;;9.50;6.38;;;26.00;28.70;;;25.28;16.12;100930.19;10334083;28;96473;-79
2022/03/25 11:56:01;;;;;;;11.88;6.43;;;26.30;28.70;;;24.96;15.62;100927.16;10292991;28;96771;-79
2022/03/25 12:01:17;;;;;;;8.45;5.47;;;26.30;28.40;;;25.26;16.08;100927.72;10293653;28;97312;-79
2022/03/25 12:06:27;;;;;;;12.13;5.72;;;26.40;28.70;;;25.07;16.34;100923.59;10292655;28;96541;-79
2022/03/25 12:11:53;;;;;;;12.27;6.60;;;26.20;28.60;;;25.19;15.90;100918.03;10305250;28;96649;-80
2022/03/25 12:16:58;;;;;;;8.70;6.03;;;26.20;28.50;;;25.24;15.55;100908.06;10308709;28;96960;-79
2022/03/25 12:22:19;;;;;;;8.63;6.63;;;26.30;28.40;;;25.54;15.86;100902.28;10275721;28;96473;-80
2022/03/25 12:27:23;;;;;;;7.60;5.65;;;26.60;28.60;;;26.09;15.69;100887.00;10280786;28;96617;-80
2022/03/25 12:32:35;;;;;;;9.48;6.28;;;27.10;28.50;;;25.88;15.05;100883.19;10234893;28;96508;-79
2022/03/25 12:38:14;;;;;;;7.32;5.45;;;27.40;28.00;;;25.58;15.71;100880.84;10252585;28;96518;-80
2022/03/25 12:43:17;;;;;;;6.97;5.43;;;27.10;27.60;;;25.41;15.62;100880.03;10224347;28;96579;-80
2022/03/25 12:48:23;;;;;;;9.27;5.95;;;27.00;28.00;;;25.96;15.64;100876.47;10264453;28;96633;-79
2022/03/25 12:53:29;;;;;;;8.63;5.70;;;27.30;28.00;;;26.21;15.78;100868.63;10255251;28;98454;-80
2022/03/25 12:58:32;;;;;;;7.97;6.15;;;27.70;28.20;;;26.09;15.73;100871.47;10261597;28;96551;-79
2022/03/25 13:03:35;;;;;;;8.40;5.38;;;27.60;27.90;;;25.66;15.22;100865.97;10274228;28;96546;-80
2022/03/25 13:08:39;;;;;;;8.95;5.47;;;27.50;27.70;;;25.91;15.28;100869.06;10227146;28;96658;-79
2022/03/25 13:13:42;;;;;;;9.35;5.68;;;27.50;28.20;;;25.78;15.38;100862.06;10270093;28;96627;-80
2022/03/25 13:18:45;;;;;;;8.73;5.72;;;27.50;27.80;;;25.50;15.77;100862.22;10232590;28;97413;-80
2022/03/25 13:23:54;;;;;;;8.90;6.30;;;27.20;27.80;;;24.99;15.44;100855.97;10241867;28;96761;-81
2022/03/25 13:28:57;;;;;;;12.18;6.63;;;26.80;27.60;;;24.58;15.93;100862.59;10273928;28;96780;-80
2022/03/25 13:34:00;;;;;;;11.18;5.50;;;26.50;27.90;;;24.42;16.20;100858.81;10307078;28;97110;-80
2022/03/25 13:39:14;;;;;;;8.30;5.13;;;26.30;27.90;;;24.45;16.46;100867.28;10293274;28;96818;-80
2022/03/25 13:44:17;;;;;;;11.80;6.10;;;26.30;28.10;;;24.28;16.43;100853.59;10300610;28;96688;-80
2022/03/25 13:49:22;;;;;;;7.65;5.35;;;26.20;27.90;;;24.20;16.63;100855.91;10315636;28;97143;-81
2022/03/25 13:54:28;;;;;;;7.13;4.68;;;26.00;28.00;;;24.12;16.32;100851.69;10322202;28;96882;-80
2022/03/25 13:59:41;;;;;;;8.02;4.93;;;26.00;28.00;;;24.18;16.45;100849.91;10313400;28;98485;-80
2022/03/25 14:04:43;;;;;;;12.80;5.53;;;26.00;28.00;;;23.84;16.53;100847.03;10328842;28;96789;-80
2022/03/25 14:09:57;;;;;;;11.23;5.20;;;25.80;28.00;;;23.87;16.57;100848.44;10314634;28;96572;-80
2022/03/25 14:15:09;;;;;;;6.45;4.43;;;25.60;28.00;;;23.99;16.69;100843.78;10312023;28;96537;-78
2022/03/25 14:20:19;;;;;;;12.15;5.95;;;25.70;28.00;;;24.16;16.08;100841.97;10309870;28;96757;-79
2022/03/25 14:25:30;;;;;;;8.60;5.18;;;25.80;27.90;;;24.17;16.23;100838.22;10311755;28;96861;-79
2022/03/25 14:30:33;;;;;;;8.45;4.72;;;25.90;27.90;;;24.01;15.93;100838.97;10256109;28;96611;-79
2022/03/25 14:35:36;;;;;;;14.02;5.15;;;25.80;27.80;;;23.86;16.22;100842.19;10232179;28;96473;-79
2022/03/25 14:40:39;;;;;;;8.00;5.15;;;25.70;27.80;;;23.53;16.61;100842.81;10220682;28;97890;-78
2022/03/25 14:45:42;;;;;;;6.80;4.63;;;25.40;27.80;;;23.82;16.26;100835.59;10255451;28;96561;-79
2022/03/25 14:50:45;;;;;;;7.68;4.88;;;25.50;27.80;;;24.18;16.43;100834.44;10267280;28;96678;-80
2022/03/25 14:55:48;;;;;;;5.25;3.55;;;25.80;27.80;;;24.25;15.38;100832.38;10250973;28;96601;-79
2022/03/25 15:00:55;;;;;;;6.28;4.00;;;25.90;27.50;;;24.40;15.50;100823.72;10238916;28;96751;-79
2022/03/25 15:06:00;;;;;;;6.93;3.45;;;25.90;27.90;;;24.34;15.67;100821.97;10253232;28;96776;-80
2022/03/25 15:11:03;;;;;;;8.48;3.72;;;25.90;27.30;;;24.13;15.38;100831.59;10260001;28;96593;-80
2022/03/25 15:16:12;;;;;;;6.78;3.50;;;25.70;27.30;;;24.12;15.83;100823.72;10266896;28;96742;-80
2022/03/25 15:21:15;;;;;;;5.67;3.50;;;25.60;27.40;;;24.16;15.25;100820.25;10264328;28;96586;-80
2022/03/25 15:26:19;;;;;;;8.02;4.07;;;25.60;27.20;;;24.19;14.95;100827.94;10267657;28;96678;-80
2022/03/25 15:36:46;;;;;;;5.93;3.10;;;25.50;27.10;;;23.95;15.25;100823.66;10252719;28;96472;-80
2022/03/25 15:41:50;;;;;;;5.38;3.58;;;25.50;27.10;;;23.52;15.24;100824.06;10255455;28;96971;-80
2022/03/25 15:46:53;;;;;;;7.75;4.80;;;25.10;27.00;;;23.01;16.19;100822.91;10260463;28;96767;-80
2022/03/25 15:51:56;;;;;;;8.65;3.85;;;24.60;27.30;;;22.76;16.79;100820.38;10262061;28;96650;-79
2022/03/25 15:57:09;;;;;;;10.02;4.35;;;24.20;27.70;;;22.54;16.53;100823.59;10257606;28;96617;-78
2022/03/25 16:02:12;;;;;;;8.23;4.18;;;24.00;27.80;;;22.11;16.90;100819.22;10275730;28;96502;-78
2022/03/25 16:07:15;;;;;;;8.40;4.57;;;23.60;28.30;;;21.49;17.37;100837.44;10275435;28;96683;-79
2022/03/25 16:12:19;;;;;;;5.25;3.15;;;23.10;28.10;;;20.64;17.97;100837.09;10268413;28;98040;-79
2022/03/25 16:17:22;;;;;;;6.10;3.42;;;22.40;28.40;;;19.74;19.14;100844.38;10245993;28;96529;-79
2022/03/25 16:22:25;;;;;;;12.23;5.72;;;21.50;28.90;;;18.94;20.93;100849.84;10292404;28;96548;-79
2022/03/25 16:27:29;;;;;;;18.40;6.68;;;20.70;29.80;;;18.22;22.04;100860.44;10243341;28;96712;-79
2022/03/25 16:32:31;;;;;;;10.18;4.15;;;19.90;30.40;;;17.51;22.59;100856.16;10266611;28;96785;-79
2022/03/25 16:37:38;;;;;;;6.85;3.65;;;19.30;30.90;;;16.88;23.32;100862.47;10237670;28;96569;-78
2022/03/25 16:42:48;;;;;;;32.45;15.50;;;18.60;31.50;;;16.29;24.18;100871.53;10275843;28;96546;-79
2022/03/25 16:47:51;;;;;;;22.40;9.18;;;18.00;32.00;;;15.74;24.49;100871.06;10291584;28;96574;-79
2022/03/25 16:52:54;;;;;;;8.00;4.05;;;17.50;32.20;;;15.24;24.78;100874.41;10270670;28;98912;-79
2022/03/25 16:57:57;;;;;;;14.20;5.65;;;17.00;32.50;;;14.79;25.22;100876.13;10291457;28;96558;-79
2022/03/25 17:03:00;;;;;;;21.83;11.05;;;16.50;32.70;;;14.43;25.76;100889.19;10253512;28;96627;-80
2022/03/25 17:08:05;;;;;;;18.97;7.97;;;16.10;33.10;;;14.11;26.22;100890.22;10271709;28;96615;-79
2022/03/25 17:13:09;;;;;;;10.80;5.17;;;15.70;33.40;;;13.80;26.74;100899.00;10273021;28;96738;-79
2022/03/25 17:18:12;;;;;;;13.37;5.60;;;15.40;33.70;;;13.51;27.07;100909.44;10247221;28;96996;-79
2022/03/25 17:23:15;;;;;;;11.73;5.23;;;15.10;34.10;;;13.24;27.44;100914.13;10275917;28;96559;-79
2022/03/25 17:28:19;;;;;;;10.47;4.50;;;14.80;34.60;;;12.97;27.76;100922.44;10268552;28;96593;-79
2022/03/25 17:33:22;;;;;;;6.10;3.33;;;14.60;35.10;;;12.76;28.30;100928.22;10253410;28;97000;-79
2022/03/25 17:38:25;;;;;;;7.73;3.70;;;14.30;35.20;;;12.57;28.72;100932.84;10236950;28;96776;-79
2022/03/25 17:43:31;;;;;;;9.77;4.13;;;14.10;35.30;;;12.38;29.54;100943.81;10254783;28;96527;-79
2022/03/25 17:48:34;;;;;;;14.17;5.20;;;13.90;36.00;;;12.05;30.48;100948.16;10270111;28;97709;-79
2022/03/25 17:53:37;;;;;;;19.10;4.73;;;13.70;37.30;;;11.75;30.67;100950.31;10255211;28;96705;-78
2022/03/25 17:58:41;;;;;;;11.63;4.47;;;13.40;37.50;;;11.48;31.15;100951.28;10248836;28;96544;-79
2022/03/25 18:03:44;;;;;;;11.90;4.50;;;13.10;37.80;;;11.21;32.08;100957.53;10265011;28;97437;-79
2022/03/25 18:08:47;;;;;;;11.30;4.20;;;12.90;38.40;;;10.99;33.49;100966.00;10265576;28;96561;-79
2022/03/25 18:13:50;;;;;;;10.40;4.87;;;12.60;39.60;;;10.76;34.13;100962.94;10250796;28;96592;-80
2022/03/25 18:18:59;;;;;;;9.53;3.57;;;12.40;40.00;;;10.63;34.57;100971.28;10219707;28;97254;-79
2022/03/25 18:24:03;;;;;;;13.03;3.70;;;12.20;40.80;;;10.68;34.32;100971.69;10230499;28;96515;-79
2022/03/25 18:29:07;;;;;;;7.90;3.50;;;12.20;40.80;;;10.81;34.40;100967.81;10261053;28;97044;-79
2022/03/25 18:34:11;;;;;;;8.00;3.80;;;12.20;41.30;;;10.97;34.12;100973.28;10299545;28;96746;-79
2022/03/25 18:39:13;;;;;;;5.53;2.80;;;12.30;41.50;;;11.10;34.01;100980.91;10324393;28;96508;-79
2022/03/25 18:44:17;;;;;;;7.53;3.30;;;12.40;41.50;;;11.15;33.96;100979.44;10309022;28;96927;-78
2022/03/25 18:49:20;;;;;;;5.13;2.77;;;12.50;41.60;;;11.15;34.01;100987.41;10303116;28;99220;-79
2022/03/25 18:54:23;;;;;;;7.33;3.03;;;12.50;41.80;;;11.11;34.29;100986.06;10294576;28;98683;-79
2022/03/25 18:59:26;;;;;;;7.77;3.50;;;12.50;42.10;;;11.02;34.78;100988.78;10307986;28;98081;-80
2022/03/25 19:04:29;;;;;;;6.27;2.97;;;12.40;42.40;;;10.97;34.85;100991.91;10323310;28;97562;-80
2022/03/25 19:09:32;;;;;;;6.50;3.40;;;12.30;42.30;;;10.96;35.01;100985.75;10310443;28;96378;-79
2022/03/25 19:14:37;;;;;;;7.10;3.30;;;12.30;42.80;;;11.07;34.97;100997.16;10304941;28;96600;-79
2022/03/25 19:19:46;;;;;;;8.30;3.57;;;12.30;42.70;;;11.14;35.05;100991.06;10304134;28;96587;-79
2022/03/25 19:24:49;;;;;;;6.27;3.43;;;12.40;42.80;;;11.21;34.75;100993.94;10295567;28;96674;-79
2022/03/25 19:29:52;;;;;;;7.90;3.40;;;12.50;42.50;;;11.23;34.62;100999.97;10329297;28;96760;-79
2022/03/25 19:34:56;;;;;;;8.87;3.30;;;12.50;42.40;;;11.20;34.82;101002.94;10293685;28;96512;-78
2022/03/25 19:39:59;;;;;;;10.33;5.60;;;12.50;42.00;;;11.08;35.19;100998.81;10303827;28;96592;-78
2022/03/25 19:45:09;;;;;;;12.83;5.07;;;12.40;42.10;;;10.88;35.93;100998.13;10302677;28;98150;-78
2022/03/25 19:50:13;;;;;;;8.97;4.50;;;12.40;42.30;;;10.73;35.78;100995.13;10304774;28;96950;-78
2022/03/25 19:55:17;;;;;;;10.10;4.17;;;12.20;42.90;;;10.62;35.95;100995.38;10306232;28;96919;-79
2022/03/25 20:00:20;;;;;;;8.37;4.13;;;12.10;43.10;;;10.47;36.49;100989.69;10299452;28;96592;-78
2022/03/25 20:05:23;;;;;;;10.60;5.50;;;12.00;43.10;;;10.25;37.43;101000.69;10326824;28;96596;-78
2022/03/25 20:10:27;;;;;;;21.17;11.57;;;11.80;43.90;;;9.98;38.26;101007.63;10324572;28;96689;-78
2022/03/25 20:15:30;;;;;;;20.80;11.40;;;11.60;44.10;;;9.70;38.85;101016.47;10307673;28;98343;-79
2022/03/25 20:20:34;;;;;;;28.60;15.13;;;11.30;44.40;;;9.42;39.60;101018.19;10286510;28;96469;-79
2022/03/25 20:25:41;;;;;;;21.87;10.27;;;11.10;45.40;;;9.18;40.02;101043.31;10323185;28;96564;-78
2022/03/25 20:30:45;;;;;;;15.17;7.93;;;10.80;45.80;;;9.00;40.97;101074.13;10297487;28;97292;-79
2022/03/25 20:35:48;;;;;;;16.27;7.70;;;10.60;46.90;;;8.85;40.87;101071.84;10326988;28;96770;-79
2022/03/25 20:40:52;;;;;;;23.40;8.37;;;10.40;46.80;;;8.70;41.29;101080.34;10306836;28;96524;-80
2022/03/25 20:45:55;;;;;;;12.30;6.60;;;10.30;47.10;;;8.54;41.71;101079.00;10318613;28;96584;-79
2022/03/25 20:50:58;;;;;;;14.03;7.33;;;10.10;47.50;;;8.45;42.63;101078.94;10294825;28;96658;-78
2022/03/25 20:56:01;;;;;;;17.03;6.43;;;10.00;47.20;;;8.42;42.40;101082.72;10286867;28;98142;-79
2022/03/25 21:01:05;;;;;;;14.40;6.20;;;9.90;47.90;;;8.37;42.34;101081.44;10309685;28;96846;-79
2022/03/25 21:06:08;;;;;;;17.17;6.33;;;9.80;48.20;;;8.27;42.59;101073.38;10293215;28;96651;-79